createdAt,value
2022-09-11T00:02:04.481Z,12.44
2022-09-11T00:04:33.501Z,12.72
2022-09-11T00:07:02.143Z,12.31
2022-09-11T00:09:32.064Z,12.45
2022-09-11T00:12:01.026Z,12.34
2022-09-11T00:14:30.412Z,12.65
2022-09-11T00:16:59.138Z,12.17
2022-09-11T00:19:28.785Z,12.69
2022-09-11T00:21:57.814Z,12.38
2022-09-11T00:24:26.911Z,12.73
2022-09-11T00:26:59.289Z,12.57
2022-09-11T00:29:28.585Z,12.39
2022-09-11T00:31:57.817Z,12.81
2022-09-11T00:34:26.614Z,11.85
2022-09-11T00:36:55.282Z,12.74
2022-09-11T00:39:23.874Z,12.69
2022-09-11T00:41:52.696Z,12.73
2022-09-11T00:45:01.956Z,12.61
2022-09-11T00:47:32.464Z,11.81
2022-09-11T00:50:13.984Z,12.73
2022-09-11T00:52:53.363Z,12.07
2022-09-11T00:55:28.062Z,12.68
2022-09-11T00:58:03.042Z,12.02
2022-09-11T01:00:35.249Z,11.63
2022-09-11T01:03:04.770Z,12.53
2022-09-11T01:05:36.749Z,12.20
2022-09-11T01:08:06.590Z,12.55
2022-09-11T01:10:49.209Z,12.31
2022-09-11T01:13:34.287Z,12.55
2022-09-11T01:16:20.485Z,12.53
2022-09-11T01:19:02.293Z,12.52
2022-09-11T01:22:11.704Z,12.53
2022-09-11T01:25:02.199Z,12.47
2022-09-11T01:27:43.839Z,12.46
2022-09-11T01:30:17.633Z,12.36
2022-09-11T01:33:11.316Z,12.47
2022-09-11T01:35:56.056Z,12.27
2022-09-11T01:38:34.812Z,12.40
2022-09-11T01:41:10.934Z,12.37
2022-09-11T01:43:51.943Z,12.13
2022-09-11T01:46:25.701Z,12.16
2022-09-11T01:49:06.730Z,12.11
2022-09-11T01:51:39.302Z,12.35
2022-09-11T01:54:17.236Z,12.32
2022-09-11T01:56:56.635Z,12.28
2022-09-11T01:59:36.225Z,12.08
2022-09-11T02:02:09.618Z,12.23
2022-09-11T02:04:44.666Z,12.25
2022-09-11T02:07:20.620Z,12.25
2022-09-11T02:09:59.522Z,12.24
2022-09-11T02:12:42.192Z,12.24
2022-09-11T02:15:17.173Z,12.21
2022-09-11T02:17:55.314Z,12.20
2022-09-11T02:20:29.792Z,11.47
2022-09-11T02:22:59.051Z,10.89
2022-09-11T02:25:27.755Z,12.17
2022-09-11T02:27:59.105Z,12.17
2022-09-11T02:30:29.253Z,12.13
2022-09-11T02:32:59.734Z,12.08
2022-09-11T02:35:48.326Z,12.09
2022-09-11T02:38:29.892Z,12.09
2022-09-11T02:41:10.494Z,12.11
2022-09-11T02:43:57.965Z,12.15
2022-09-11T02:46:57.939Z,11.51
2022-09-11T02:49:43.748Z,12.12
2022-09-11T02:52:33.078Z,11.21
2022-09-11T02:55:20.217Z,12.08
2022-09-11T02:57:58.800Z,11.80
2022-09-11T03:00:30.294Z,12.02
2022-09-11T03:03:05.697Z,12.00
2022-09-11T03:05:37.376Z,11.98
2022-09-11T03:08:06.008Z,11.99
2022-09-11T03:10:34.761Z,12.00
2022-09-11T03:13:03.402Z,12.01
2022-09-11T03:15:34.453Z,11.86
2022-09-11T03:18:05.692Z,12.09
2022-09-11T03:20:35.720Z,12.16
2022-09-11T03:23:11.147Z,12.14
2022-09-11T03:25:47.208Z,12.08
2022-09-11T03:28:19.042Z,10.24
2022-09-11T03:30:56.993Z,10.25
2022-09-11T03:33:29.334Z,11.15
2022-09-11T03:35:58.386Z,12.14
2022-09-11T03:38:27.708Z,12.15
2022-09-11T03:40:56.945Z,12.19
2022-09-11T03:43:27.749Z,12.21
2022-09-11T03:45:58.627Z,12.21
2022-09-11T03:48:29.282Z,11.85
2022-09-11T03:51:00.370Z,11.09
2022-09-11T03:53:29.690Z,10.91
2022-09-11T03:56:04.585Z,12.12
2022-09-11T03:58:40.496Z,12.08
2022-09-11T04:01:14.575Z,11.98
2022-09-11T04:03:48.879Z,11.17
2022-09-11T04:06:24.956Z,10.83
2022-09-11T04:08:55.893Z,11.02
2022-09-11T04:11:28.475Z,12.03
2022-09-11T04:14:00.912Z,12.04
2022-09-11T04:16:32.979Z,11.55
2022-09-11T04:19:04.894Z,11.43
2022-09-11T04:21:35.374Z,12.11
2022-09-11T04:24:04.355Z,12.16
2022-09-11T04:26:37.988Z,12.20
2022-09-11T04:29:13.231Z,12.27
2022-09-11T04:31:42.565Z,12.27
2022-09-11T04:34:14.539Z,12.33
2022-09-11T04:36:44.986Z,12.37
2022-09-11T04:39:19.465Z,12.43
2022-09-11T04:41:49.628Z,12.48
2022-09-11T04:44:20.267Z,12.51
2022-09-11T04:46:51.235Z,12.57
2022-09-11T04:49:24.014Z,12.15
2022-09-11T04:51:53.410Z,12.64
2022-09-11T04:54:24.909Z,12.60
2022-09-11T04:56:54.852Z,12.77
2022-09-11T04:59:24.840Z,12.84
2022-09-11T05:02:01.663Z,12.89
2022-09-11T05:04:35.367Z,12.96
2022-09-11T05:07:06.187Z,12.97
2022-09-11T05:09:39.249Z,11.21
2022-09-11T05:12:08.807Z,13.10
2022-09-11T05:14:38.827Z,13.03
2022-09-11T05:17:08.086Z,13.05
2022-09-11T05:19:45.380Z,12.38
2022-09-11T05:22:17.925Z,12.57
2022-09-11T05:25:44.545Z,13.50
2022-09-11T05:28:21.758Z,13.65
2022-09-11T05:31:13.208Z,13.76
2022-09-11T05:33:43.366Z,13.84
2022-09-11T05:36:17.970Z,13.83
2022-09-11T05:38:46.973Z,12.14
2022-09-11T05:41:17.209Z,12.18
2022-09-11T05:43:46.636Z,12.12
2022-09-11T05:46:24.217Z,11.99
2022-09-11T05:48:59.366Z,12.83
2022-09-11T05:51:37.923Z,12.08
2022-09-11T05:54:08.879Z,13.96
2022-09-11T05:56:43.636Z,12.90
2022-09-11T05:59:20.973Z,14.03
2022-09-11T06:01:51.742Z,14.19
2022-09-11T06:04:32.088Z,12.75
2022-09-11T06:07:05.720Z,13.39
2022-09-11T06:09:34.727Z,14.08
2022-09-11T06:12:04.608Z,14.03
2022-09-11T06:14:33.786Z,14.18
2022-09-11T06:17:02.704Z,14.06
2022-09-11T06:19:33.919Z,14.07
2022-09-11T06:22:06.360Z,13.17
2022-09-11T06:24:45.592Z,13.90
2022-09-11T06:27:14.381Z,12.81
2022-09-11T06:29:46.373Z,14.36
2022-09-11T06:32:15.088Z,14.43
2022-09-11T06:34:43.836Z,14.44
2022-09-11T06:37:17.360Z,14.59
2022-09-11T06:39:49.497Z,13.50
2022-09-11T06:42:24.600Z,14.77
2022-09-11T06:44:53.619Z,14.80
2022-09-11T06:47:22.499Z,14.60
2022-09-11T06:49:51.305Z,14.43
2022-09-11T06:52:36.192Z,14.32
2022-09-11T06:55:27.987Z,14.61
2022-09-11T06:58:04.017Z,13.55
2022-09-11T07:00:35.023Z,15.00
2022-09-11T07:03:04.488Z,14.33
2022-09-11T07:05:33.804Z,15.01
2022-09-11T07:08:05.613Z,15.01
2022-09-11T07:10:37.548Z,14.79
2022-09-11T07:13:06.376Z,14.56
2022-09-11T07:15:34.994Z,13.94
2022-09-11T07:18:05.621Z,14.85
2022-09-11T07:20:34.709Z,14.83
2022-09-11T07:23:04.911Z,14.57
2022-09-11T07:25:34.068Z,15.27
2022-09-11T07:28:03.696Z,14.96
2022-09-11T07:30:33.783Z,15.37
2022-09-11T07:33:02.824Z,14.35
2022-09-11T07:35:32.032Z,15.80
2022-09-11T07:38:01.174Z,15.92
2022-09-11T07:40:32.327Z,15.68
2022-09-11T07:43:04.222Z,15.76
2022-09-11T07:45:35.041Z,15.99
2022-09-11T07:48:06.993Z,15.48
2022-09-11T07:50:36.609Z,14.72
2022-09-11T07:53:07.345Z,14.80
2022-09-11T07:55:38.791Z,16.27
2022-09-11T07:58:08.917Z,16.03
2022-09-11T08:00:39.118Z,16.33
2022-09-11T08:03:17.377Z,15.16
2022-09-11T08:05:46.437Z,15.51
2022-09-11T08:08:16.198Z,16.18
2022-09-11T08:10:46.461Z,15.94
2022-09-11T08:13:16.262Z,16.06
2022-09-11T08:15:49.056Z,16.30
2022-09-11T08:18:18.156Z,15.69
2022-09-11T08:20:46.787Z,16.18
2022-09-11T08:23:41.581Z,16.50
2022-09-11T08:29:27.121Z,15.96
2022-09-11T08:32:02.079Z,16.59
2022-09-11T08:34:32.567Z,16.63
2022-09-11T08:37:01.509Z,16.38
2022-09-11T08:39:33.611Z,16.30
2022-09-11T08:42:15.146Z,16.64
2022-09-11T08:44:50.321Z,16.47
2022-09-11T08:47:40.326Z,16.45
2022-09-11T08:50:22.199Z,16.68
2022-09-11T08:52:54.262Z,16.80
2022-09-11T08:55:39.700Z,17.03
2022-09-11T08:58:27.737Z,17.17
2022-09-11T09:01:13.354Z,17.15
2022-09-11T09:04:05.758Z,16.77
2022-09-11T09:07:01.164Z,15.67
2022-09-11T09:09:46.217Z,16.64
2022-09-11T09:12:32.904Z,16.87
2022-09-11T09:15:39.097Z,17.20
2022-09-11T09:18:18.896Z,17.38
2022-09-11T09:21:02.310Z,16.65
2022-09-11T09:23:42.636Z,16.45
2022-09-11T09:26:19.131Z,16.72
2022-09-11T09:28:53.668Z,17.11
2022-09-11T09:31:34.216Z,16.25
2022-09-11T09:34:10.040Z,16.31
2022-09-11T09:36:55.317Z,15.91
2022-09-11T09:39:30.162Z,15.08
2022-09-11T09:42:48.070Z,15.25
2022-09-11T09:45:39.823Z,15.97
2022-09-11T09:48:13.142Z,16.87
2022-09-11T09:50:45.338Z,16.67
2022-09-11T09:53:34.399Z,16.63
2022-09-11T09:59:14.971Z,16.38
2022-09-11T10:01:55.177Z,16.80
2022-09-11T10:04:27.693Z,16.92
2022-09-11T10:07:10.594Z,17.79
2022-09-11T10:09:48.562Z,16.72
2022-09-11T10:12:23.134Z,16.44
2022-09-11T10:14:57.378Z,17.28
2022-09-11T10:17:37.194Z,17.88
2022-09-11T10:20:28.144Z,17.09
2022-09-11T10:23:20.587Z,17.58
2022-09-11T10:25:53.246Z,16.87
2022-09-11T10:28:31.426Z,16.28
2022-09-11T10:31:03.841Z,18.29
2022-09-11T10:33:37.219Z,18.21
2022-09-11T10:36:10.622Z,17.70
2022-09-11T10:38:49.425Z,19.06
2022-09-11T10:41:25.307Z,20.08
2022-09-11T10:44:00.641Z,19.46
2022-09-11T10:46:39.581Z,19.35
2022-09-11T10:49:25.976Z,19.65
2022-09-11T10:52:05.631Z,19.77
2022-09-11T10:54:54.234Z,19.45
2022-09-11T10:57:40.180Z,18.28
2022-09-11T11:00:20.852Z,18.68
2022-09-11T11:02:53.482Z,19.34
2022-09-11T11:05:32.840Z,20.04
2022-09-11T11:08:28.966Z,20.16
2022-09-11T11:11:26.104Z,20.39
2022-09-11T11:14:29.933Z,20.26
2022-09-11T11:17:09.657Z,19.90
2022-09-11T11:19:58.702Z,20.68
2022-09-11T11:22:58.450Z,21.33
2022-09-11T11:25:35.835Z,19.86
2022-09-11T11:28:32.793Z,21.74
2022-09-11T11:31:19.220Z,20.05
2022-09-11T11:34:10.449Z,21.53
2022-09-11T11:36:48.451Z,20.39
2022-09-11T11:39:26.615Z,19.58
2022-09-11T11:42:13.460Z,19.41
2022-09-11T11:44:49.780Z,19.77
2022-09-11T11:47:26.481Z,20.11
2022-09-11T11:50:04.569Z,19.35
2022-09-11T11:52:49.645Z,19.90
2022-09-11T11:55:24.227Z,20.56
2022-09-11T11:58:07.826Z,19.21
2022-09-11T12:00:45.104Z,18.56
2022-09-11T12:03:23.865Z,20.37
2022-09-11T12:05:52.558Z,20.48
2022-09-11T12:08:21.123Z,20.84
2022-09-11T12:10:59.418Z,19.66
2022-09-11T12:13:35.483Z,20.91
2022-09-11T12:16:17.401Z,21.39
2022-09-11T12:19:17.337Z,21.07
2022-09-11T12:22:33.563Z,20.80
2022-09-11T12:25:03.442Z,20.04
2022-09-11T12:27:55.843Z,20.41
2022-09-11T12:31:00.147Z,19.88
2022-09-11T12:33:55.657Z,20.86
2022-09-11T12:36:53.851Z,20.36
2022-09-11T12:39:39.817Z,21.41
2022-09-11T12:42:57.053Z,21.05
2022-09-11T12:45:36.443Z,20.21
2022-09-11T12:48:14.583Z,20.44
2022-09-11T12:50:56.313Z,19.23
2022-09-11T12:53:31.297Z,20.42
2022-09-11T12:56:05.118Z,20.75
2022-09-11T12:58:40.538Z,20.66
2022-09-11T13:01:22.464Z,21.07
2022-09-11T13:04:01.076Z,21.44
2022-09-11T13:06:44.170Z,21.45
2022-09-11T13:09:23.297Z,20.37
2022-09-11T13:11:53.839Z,22.31
2022-09-11T13:14:51.158Z,22.04
2022-09-11T13:17:31.316Z,21.95
2022-09-11T13:20:23.030Z,22.04
2022-09-11T13:22:58.139Z,20.75
2022-09-11T13:25:31.459Z,21.99
2022-09-11T13:28:03.493Z,21.98
2022-09-11T13:30:32.796Z,21.81
2022-09-11T13:33:08.347Z,20.93
2022-09-11T13:35:40.519Z,20.84
2022-09-11T13:38:15.120Z,19.92
2022-09-11T13:40:54.648Z,19.63
2022-09-11T13:43:30.133Z,18.38
2022-09-11T13:46:24.082Z,19.68
2022-09-11T13:49:12.689Z,18.79
2022-09-11T13:51:47.780Z,20.13
2022-09-11T13:54:28.761Z,20.64
2022-09-11T13:57:23.139Z,20.47
2022-09-11T14:00:14.377Z,19.22
2022-09-11T14:02:57.589Z,19.43
2022-09-11T14:05:34.094Z,20.22
2022-09-11T14:08:24.064Z,20.85
2022-09-11T14:11:02.746Z,20.37
2022-09-11T14:13:43.570Z,20.28
2022-09-11T14:16:27.692Z,22.28
2022-09-11T14:19:08.822Z,21.89
2022-09-11T14:21:40.805Z,22.09
2022-09-11T14:24:31.105Z,20.67
2022-09-11T14:27:04.615Z,22.69
2022-09-11T14:29:36.516Z,20.90
2022-09-11T14:32:34.587Z,21.79
2022-09-11T14:35:11.405Z,20.44
2022-09-11T14:37:46.371Z,21.75
2022-09-11T14:40:22.542Z,21.64
2022-09-11T14:42:51.951Z,22.48
2022-09-11T14:45:32.458Z,20.81
2022-09-11T14:48:01.852Z,22.14
2022-09-11T14:50:33.010Z,21.86
2022-09-11T14:53:03.280Z,23.10
2022-09-11T14:55:37.327Z,21.94
2022-09-11T14:58:07.583Z,22.58
2022-09-11T15:00:36.480Z,22.45
2022-09-11T15:03:13.298Z,21.55
2022-09-11T15:05:45.004Z,22.45
2022-09-11T15:08:30.697Z,21.40
2022-09-11T15:11:03.988Z,20.25
2022-09-11T15:13:33.801Z,22.17
2022-09-11T15:16:02.602Z,20.79
2022-09-11T15:18:36.855Z,20.41
2022-09-11T15:21:13.058Z,20.15
2022-09-11T15:23:47.390Z,21.58
2022-09-11T15:29:31.732Z,19.42
2022-09-11T15:32:57.326Z,21.39
2022-09-11T15:35:39.927Z,20.29
2022-09-11T15:39:21.431Z,20.67
2022-09-11T15:41:28.279Z,18.90
2022-09-11T15:43:57.360Z,18.71
2022-09-11T15:46:28.796Z,18.82
2022-09-11T15:49:13.841Z,18.20
2022-09-11T15:51:56.695Z,17.73
2022-09-11T15:54:29.706Z,19.08
2022-09-11T15:57:02.988Z,19.59
2022-09-11T15:59:48.798Z,19.35
2022-09-11T16:02:24.021Z,19.67
2022-09-11T16:04:54.017Z,19.40
2022-09-11T16:07:30.364Z,19.01
2022-09-11T16:10:02.056Z,18.91
2022-09-11T16:12:34.953Z,18.22
2022-09-11T16:15:07.551Z,18.15
2022-09-11T16:17:36.561Z,19.12
2022-09-11T16:20:05.967Z,18.99
2022-09-11T16:22:34.969Z,18.03
2022-09-11T16:25:03.686Z,16.86
2022-09-11T16:27:36.330Z,15.01
2022-09-11T16:30:42.112Z,17.00
2022-09-11T16:32:58.227Z,16.92
2022-09-11T16:35:27.306Z,16.79
2022-09-11T16:38:15.006Z,16.18
2022-09-11T16:40:46.174Z,16.79
2022-09-11T16:43:19.456Z,16.58
2022-09-11T16:45:53.725Z,15.40
2022-09-11T16:48:25.359Z,16.55
2022-09-11T16:50:54.590Z,16.49
2022-09-11T16:53:24.067Z,15.72
2022-09-11T16:55:53.537Z,16.43
2022-09-11T16:58:26.013Z,15.46
2022-09-11T17:00:54.796Z,16.29
2022-09-11T17:03:27.299Z,15.21
2022-09-11T17:06:00.273Z,15.68
2022-09-11T17:08:39.336Z,16.08
2022-09-11T17:11:12.421Z,14.20
2022-09-11T17:13:44.107Z,15.40
2022-09-11T17:16:20.821Z,14.14
2022-09-11T17:18:50.588Z,15.44
2022-09-11T17:21:19.621Z,16.17
2022-09-11T17:23:48.113Z,15.47
2022-09-11T17:26:17.934Z,15.23
2022-09-11T17:28:50.664Z,15.30
2022-09-11T17:31:20.481Z,13.93
2022-09-11T17:33:50.300Z,15.98
2022-09-11T17:36:24.197Z,15.87
2022-09-11T17:38:55.272Z,14.70
2022-09-11T17:41:29.292Z,15.71
2022-09-11T17:44:14.972Z,14.79
2022-09-11T17:46:43.842Z,13.83
2022-09-11T17:49:23.243Z,14.49
2022-09-11T17:51:54.939Z,15.80
2022-09-11T17:54:24.985Z,14.99
2022-09-11T17:56:54.044Z,14.49
2022-09-11T17:59:28.095Z,14.77
2022-09-11T18:01:59.188Z,15.22
2022-09-11T18:04:27.847Z,14.05
2022-09-11T18:06:56.982Z,15.70
2022-09-11T18:09:25.936Z,15.72
2022-09-11T18:11:55.285Z,15.76
2022-09-11T18:14:28.836Z,14.61
2022-09-11T18:16:58.570Z,13.71
2022-09-11T18:19:30.235Z,15.90
2022-09-11T18:22:02.648Z,15.93
2022-09-11T18:24:31.488Z,15.56
2022-09-11T18:27:02.270Z,15.95
2022-09-11T18:29:35.484Z,13.59
2022-09-11T18:32:07.510Z,15.91
2022-09-11T18:34:39.109Z,13.87
2022-09-11T18:37:08.817Z,15.65
2022-09-11T18:39:55.064Z,14.59
2022-09-11T18:42:34.656Z,15.91
2022-09-11T18:45:30.839Z,14.26
2022-09-11T18:48:45.718Z,14.01
2022-09-11T18:51:26.948Z,15.26
2022-09-11T18:53:56.867Z,15.96
2022-09-11T18:56:29.598Z,14.96
2022-09-11T18:59:11.341Z,14.83
2022-09-11T19:01:43.392Z,15.45
2022-09-11T19:04:14.850Z,15.03
2022-09-11T19:06:45.290Z,15.97
2022-09-11T19:09:22.427Z,15.52
2022-09-11T19:12:00.437Z,13.77
2022-09-11T19:14:35.909Z,15.97
2022-09-11T19:17:06.151Z,15.69
2022-09-11T19:19:34.982Z,15.76
2022-09-11T19:22:03.605Z,15.97
2022-09-11T19:24:35.746Z,15.17
2022-09-11T19:27:04.742Z,15.95
2022-09-11T19:29:33.372Z,15.34
2022-09-11T19:32:02.498Z,16.00
2022-09-11T19:34:46.471Z,15.35
2022-09-11T19:37:16.575Z,16.04
2022-09-11T19:39:45.214Z,16.05
2022-09-11T19:42:14.164Z,16.10
2022-09-11T19:49:20.809Z,14.46
2022-09-11T19:52:18.362Z,16.12
2022-09-11T19:54:51.994Z,16.04
2022-09-11T19:57:24.699Z,15.38
2022-09-11T19:59:57.081Z,15.96
2022-09-11T20:02:28.753Z,16.07
2022-09-11T20:05:00.634Z,16.07
2022-09-11T20:07:37.931Z,16.02
2022-09-11T20:10:10.118Z,15.99
2022-09-11T20:12:40.763Z,15.98
2022-09-11T20:15:14.780Z,15.81
2022-09-11T20:17:44.854Z,15.92
2022-09-11T20:20:13.476Z,15.97
2022-09-11T20:22:43.518Z,15.66
2022-09-11T20:25:12.321Z,15.84
2022-09-11T20:27:41.025Z,15.79
2022-09-11T20:30:14.750Z,15.85
2022-09-11T20:32:46.050Z,15.36
2022-09-11T20:35:18.248Z,14.96
2022-09-11T20:37:49.021Z,15.51
2022-09-11T20:40:18.592Z,15.73
2022-09-11T20:42:47.419Z,15.74
2022-09-11T20:45:17.912Z,15.33
2022-09-11T20:47:46.635Z,15.79
2022-09-11T20:50:20.735Z,15.77
2022-09-11T20:52:50.848Z,15.76
2022-09-11T20:55:21.494Z,15.16
2022-09-11T20:57:51.824Z,15.71
2022-09-11T21:00:20.687Z,15.52
2022-09-11T21:02:53.205Z,14.14
2022-09-11T21:05:22.954Z,14.48
2022-09-11T21:07:53.067Z,15.20
2022-09-11T21:10:21.746Z,15.36
2022-09-11T21:12:51.541Z,15.31
2022-09-11T21:15:20.148Z,15.31
2022-09-11T21:17:52.328Z,15.34
2022-09-11T21:20:21.086Z,15.33
2022-09-11T21:22:49.604Z,15.30
2022-09-11T21:25:19.773Z,15.00
2022-09-11T21:27:49.626Z,13.72
2022-09-11T21:30:20.434Z,15.03
2022-09-11T21:32:50.253Z,14.98
2022-09-11T21:35:19.269Z,14.98
2022-09-11T21:37:55.431Z,14.88
2022-09-11T21:40:26.974Z,14.60
2022-09-11T21:42:55.940Z,15.02
2022-09-11T21:45:24.812Z,14.53
2022-09-11T21:47:53.449Z,14.99
2022-09-11T21:50:23.750Z,15.15
2022-09-11T21:52:55.073Z,15.21
2022-09-11T21:55:25.474Z,15.01
2022-09-11T21:57:54.486Z,15.25
2022-09-11T22:00:23.465Z,15.09
2022-09-11T22:03:03.295Z,15.32
2022-09-11T22:05:35.028Z,14.58
2022-09-11T22:08:04.300Z,15.33
2022-09-11T22:10:36.014Z,14.40
2022-09-11T22:13:04.782Z,15.43
2022-09-11T22:15:35.396Z,15.40
2022-09-11T22:18:04.519Z,15.33
2022-09-11T22:20:38.330Z,14.93
2022-09-11T22:23:09.757Z,15.22
2022-09-11T22:25:41.765Z,15.15
2022-09-11T22:28:10.620Z,13.74
2022-09-11T22:30:45.448Z,15.03
2022-09-11T22:33:18.521Z,15.03
2022-09-11T22:35:49.483Z,15.05
2022-09-11T22:38:20.541Z,14.33
2022-09-11T22:41:02.645Z,14.99
2022-09-11T22:43:31.296Z,14.90
2022-09-11T22:46:01.151Z,14.04
2022-09-11T22:48:32.495Z,14.76
2022-09-11T22:51:01.293Z,14.67
2022-09-11T22:53:32.977Z,14.62
2022-09-11T22:56:03.657Z,13.58
2022-09-11T22:58:32.571Z,14.51
2022-09-11T23:01:03.878Z,14.17
2022-09-11T23:03:34.721Z,13.22
2022-09-11T23:06:24.273Z,13.96
2022-09-11T23:08:52.939Z,14.08
2022-09-11T23:11:23.494Z,13.84
2022-09-11T23:13:53.771Z,13.43
2022-09-11T23:16:25.593Z,13.86
2022-09-11T23:18:58.721Z,13.27
2022-09-11T23:21:29.565Z,13.86
2022-09-11T23:24:01.301Z,13.57
2022-09-11T23:26:32.875Z,13.33
2022-09-11T23:29:01.585Z,13.62
2022-09-11T23:31:34.291Z,13.14
2022-09-11T23:34:07.053Z,13.55
2022-09-11T23:36:37.274Z,13.56
2022-09-11T23:39:08.162Z,13.55
2022-09-11T23:41:38.351Z,13.35
2022-09-11T23:44:14.763Z,13.36
2022-09-11T23:46:45.419Z,12.98
2022-09-11T23:49:21.102Z,12.38
2022-09-11T23:51:50.269Z,13.64
2022-09-11T23:54:18.772Z,13.54
2022-09-11T23:56:49.047Z,13.46
2022-09-11T23:59:21.961Z,13.39
